Time;durP1;ratioP1;P1;durP2;ratioP2;P2;SDS_P1;SDS_P2;PMS_P1;PMS_P2;Temp;Humidity;BMP_temperature;BMP_pressure;BME280_temperature;BME280_humidity;BME280_pressure;Samples;Min_cycle;Max_cycle;Signal;HPM_P1;HPM_P2
2021/09/27 00:00:24;;;;;;;0.10;0.10;;;;;;;;;;5062489;28;20252;-72
2021/09/27 00:02:50;;;;;;;0.10;0.10;;;;;;;;;;5063182;28;20464;-68
2021/09/27 00:05:18;;;;;;;0.08;0.08;;;;;;;;;;5063318;28;20256;-73
2021/09/27 00:07:46;;;;;;;0.00;0.00;;;;;;;;;;5062990;28;20271;-74
2021/09/27 00:10:14;;;;;;;0.10;0.10;;;;;;;;;;5062884;28;20213;-73
2021/09/27 00:12:40;;;;;;;0.00;0.00;;;;;;;;;;5062967;28;20247;-73
2021/09/27 00:15:08;;;;;;;0.10;0.10;;;;;;;;;;5049039;28;20200;-73
2021/09/27 00:17:34;;;;;;;0.00;0.00;;;;;;;;;;5063179;28;20208;-73
2021/09/27 00:20:00;;;;;;;0.00;0.00;;;;;;;;;;5062711;28;20528;-73
2021/09/27 00:22:26;;;;;;;0.00;0.00;;;;;;;;;;5063185;28;20519;-73
2021/09/27 00:24:54;;;;;;;0.10;0.10;;;;;;;;;;5062963;28;20205;-73
2021/09/27 00:27:20;;;;;;;0.10;0.10;;;;;;;;;;5048830;28;20347;-73
2021/09/27 00:29:46;;;;;;;0.10;0.10;;;;;;;;;;5062723;28;20227;-73
2021/09/27 00:32:12;;;;;;;0.10;0.10;;;;;;;;;;5062891;28;20380;-73
2021/09/27 00:34:39;;;;;;;0.10;0.10;;;;;;;;;;5063005;28;20254;-73
2021/09/27 00:37:05;;;;;;;0.10;0.10;;;;;;;;;;5062885;28;20205;-73
2021/09/27 00:39:31;;;;;;;0.08;0.08;;;;;;;;;;5062830;28;20483;-73
2021/09/27 00:41:59;;;;;;;0.10;0.10;;;;;;;;;;5062601;28;20302;-73
2021/09/27 00:44:25;;;;;;;0.10;0.10;;;;;;;;;;5062505;28;20212;-73
2021/09/27 00:46:53;;;;;;;0.10;0.10;;;;;;;;;;5062936;28;20228;-73
2021/09/27 00:49:19;;;;;;;0.10;0.10;;;;;;;;;;5062230;28;20268;-73
2021/09/27 00:51:46;;;;;;;0.10;0.10;;;;;;;;;;5042570;28;20208;-73
2021/09/27 00:54:16;;;;;;;0.03;0.03;;;;;;;;;;5056650;28;20212;-73
2021/09/27 00:56:45;;;;;;;0.00;0.00;;;;;;;;;;5062677;28;20196;-74
2021/09/27 00:59:13;;;;;;;0.00;0.00;;;;;;;;;;5062451;28;20204;-73
2021/09/27 01:01:39;;;;;;;0.00;0.00;;;;;;;;;;5063048;28;20204;-73
2021/09/27 01:04:06;;;;;;;0.00;0.00;;;;;;;;;;5062728;28;20255;-73
2021/09/27 01:06:43;;;;;;;0.10;0.10;;;;;;;;;;5062623;28;20229;-73
2021/09/27 01:09:13;;;;;;;0.03;0.03;;;;;;;;;;5062731;28;20254;-73
2021/09/27 01:11:55;;;;;;;0.00;0.00;;;;;;;;;;5065369;28;20200;-73
2021/09/27 01:14:30;;;;;;;0.00;0.00;;;;;;;;;;5066485;28;20275;-72
2021/09/27 01:17:00;;;;;;;0.10;0.10;;;;;;;;;;5066131;28;20196;-73
2021/09/27 01:19:41;;;;;;;0.10;0.10;;;;;;;;;;5066162;28;20516;-73
2021/09/27 01:22:12;;;;;;;0.10;0.10;;;;;;;;;;5063560;28;20239;-73
2021/09/27 01:25:02;;;;;;;0.10;0.10;;;;;;;;;;5057949;28;20201;-72
2021/09/27 01:27:56;;;;;;;0.25;0.25;;;;;;;;;;5049909;28;20320;-73
2021/09/27 01:30:33;;;;;;;0.10;0.10;;;;;;;;;;5062577;28;20230;-72
2021/09/27 01:33:03;;;;;;;0.10;0.10;;;;;;;;;;5066364;28;20311;-73
2021/09/27 01:35:35;;;;;;;0.10;0.10;;;;;;;;;;5066237;28;20265;-73
2021/09/27 01:38:10;;;;;;;0.08;0.08;;;;;;;;;;5066060;28;20248;-73
2021/09/27 01:40:39;;;;;;;0.10;0.10;;;;;;;;;;5066113;28;20200;-73
2021/09/27 01:43:09;;;;;;;0.10;0.10;;;;;;;;;;5057020;28;20200;-73
2021/09/27 01:45:39;;;;;;;0.10;0.10;;;;;;;;;;5066089;28;20487;-74
2021/09/27 01:48:11;;;;;;;0.10;0.10;;;;;;;;;;5065491;28;20230;-73
2021/09/27 01:50:40;;;;;;;0.10;0.10;;;;;;;;;;5054561;28;20233;-73
2021/09/27 01:53:10;;;;;;;0.03;0.03;;;;;;;;;;5059616;28;20207;-73
2021/09/27 01:55:41;;;;;;;0.10;0.10;;;;;;;;;;5045599;28;20205;-73
2021/09/27 01:58:12;;;;;;;0.00;0.00;;;;;;;;;;5063132;28;20496;-73
2021/09/27 02:00:41;;;;;;;0.10;0.10;;;;;;;;;;5060130;28;20273;-73
2021/09/27 02:03:13;;;;;;;0.10;0.10;;;;;;;;;;5057839;28;20204;-73
2021/09/27 02:05:43;;;;;;;0.00;0.00;;;;;;;;;;5065604;28;20270;-73
2021/09/27 02:08:11;;;;;;;0.00;0.00;;;;;;;;;;5065586;28;20212;-73
2021/09/27 02:10:40;;;;;;;0.10;0.10;;;;;;;;;;5065510;28;20461;-73
2021/09/27 02:13:08;;;;;;;0.10;0.10;;;;;;;;;;5065681;28;20391;-73
2021/09/27 02:15:36;;;;;;;0.00;0.00;;;;;;;;;;5051292;28;20205;-73
2021/09/27 02:18:04;;;;;;;0.08;0.08;;;;;;;;;;5065433;28;20223;-73
2021/09/27 02:20:34;;;;;;;0.08;0.08;;;;;;;;;;5064637;28;20216;-72
2021/09/27 02:23:02;;;;;;;0.05;0.05;;;;;;;;;;5056373;28;20243;-73
2021/09/27 02:25:32;;;;;;;0.00;0.00;;;;;;;;;;5059391;28;20204;-73
2021/09/27 02:28:00;;;;;;;0.10;0.10;;;;;;;;;;5051785;28;20196;-73
2021/09/27 02:30:30;;;;;;;0.10;0.10;;;;;;;;;;5064978;28;20204;-73
2021/09/27 02:32:59;;;;;;;0.03;0.03;;;;;;;;;;5064992;28;20262;-73
2021/09/27 02:35:27;;;;;;;0.10;0.10;;;;;;;;;;5065108;28;20203;-73
2021/09/27 02:37:58;;;;;;;0.00;0.00;;;;;;;;;;5065031;28;20227;-73
2021/09/27 02:40:28;;;;;;;0.00;0.00;;;;;;;;;;5065053;28;20420;-73
2021/09/27 02:42:55;;;;;;;0.08;0.08;;;;;;;;;;5064966;28;20204;-72
2021/09/27 02:45:21;;;;;;;0.03;0.03;;;;;;;;;;5065145;28;20204;-73
2021/09/27 02:47:50;;;;;;;0.10;0.10;;;;;;;;;;5065019;28;20379;-73
2021/09/27 02:50:18;;;;;;;0.10;0.10;;;;;;;;;;5064352;28;20595;-73
2021/09/27 02:52:44;;;;;;;0.08;0.08;;;;;;;;;;5064672;28;20261;-74
2021/09/27 02:55:14;;;;;;;0.00;0.00;;;;;;;;;;5064452;28;20210;-73
2021/09/27 02:57:45;;;;;;;0.03;0.03;;;;;;;;;;5064765;28;20212;-73
2021/09/27 03:00:13;;;;;;;0.10;0.10;;;;;;;;;;5050388;28;20212;-73
2021/09/27 03:02:48;;;;;;;0.10;0.10;;;;;;;;;;5064371;28;20211;-73
2021/09/27 03:05:19;;;;;;;0.10;0.10;;;;;;;;;;5064257;28;20278;-74
2021/09/27 03:07:54;;;;;;;0.00;0.00;;;;;;;;;;5064683;28;20545;-75
2021/09/27 03:10:25;;;;;;;0.08;0.08;;;;;;;;;;5064140;28;20257;-73
2021/09/27 03:12:55;;;;;;;0.10;0.10;;;;;;;;;;5064211;28;20246;-73
2021/09/27 03:15:29;;;;;;;0.10;0.10;;;;;;;;;;5046682;28;20402;-74
2021/09/27 03:18:00;;;;;;;0.05;0.05;;;;;;;;;;5055166;28;20241;-72
2021/09/27 03:20:44;;;;;;;0.10;0.10;;;;;;;;;;5060469;28;20218;-73
2021/09/27 03:23:14;;;;;;;0.10;0.10;;;;;;;;;;5056474;28;20195;-74
2021/09/27 03:25:53;;;;;;;0.00;0.00;;;;;;;;;;5063886;28;20246;-74
2021/09/27 03:28:22;;;;;;;0.00;0.00;;;;;;;;;;5063909;28;20234;-74
2021/09/27 03:30:57;;;;;;;0.10;0.10;;;;;;;;;;5063019;28;20405;-74
2021/09/27 03:33:29;;;;;;;0.08;0.08;;;;;;;;;;5051850;28;20429;-73
2021/09/27 03:36:03;;;;;;;0.10;0.10;;;;;;;;;;5049895;28;20212;-74
2021/09/27 03:38:31;;;;;;;0.10;0.10;;;;;;;;;;5062970;28;20402;-74
2021/09/27 03:41:03;;;;;;;0.08;0.08;;;;;;;;;;5063982;28;20427;-73
2021/09/27 03:43:33;;;;;;;0.03;0.03;;;;;;;;;;5063989;28;20241;-73
2021/09/27 03:46:06;;;;;;;0.10;0.10;;;;;;;;;;5049628;28;20212;-74
2021/09/27 03:48:35;;;;;;;0.00;0.00;;;;;;;;;;5050347;28;20499;-74
2021/09/27 03:51:03;;;;;;;0.10;0.10;;;;;;;;;;5063755;28;20502;-74
2021/09/27 03:53:32;;;;;;;0.00;0.00;;;;;;;;;;5063547;28;20205;-74
2021/09/27 03:56:03;;;;;;;0.00;0.00;;;;;;;;;;5051468;28;20208;-74
2021/09/27 03:58:31;;;;;;;0.00;0.00;;;;;;;;;;5057134;28;20204;-74
2021/09/27 04:00:59;;;;;;;0.00;0.00;;;;;;;;;;5054528;28;20301;-73
2021/09/27 04:03:36;;;;;;;0.10;0.10;;;;;;;;;;5063184;28;20217;-74
2021/09/27 04:06:05;;;;;;;0.10;0.10;;;;;;;;;;5063405;28;20274;-73
2021/09/27 04:08:35;;;;;;;0.10;0.10;;;;;;;;;;5063311;28;20200;-74
2021/09/27 04:11:13;;;;;;;0.00;0.00;;;;;;;;;;5053163;28;20306;-74
2021/09/27 04:13:41;;;;;;;0.10;0.10;;;;;;;;;;5057395;28;20199;-74
2021/09/27 04:16:19;;;;;;;0.00;0.00;;;;;;;;;;5053114;28;20223;-74
2021/09/27 04:18:50;;;;;;;0.10;0.10;;;;;;;;;;5062997;28;20195;-74
2021/09/27 04:21:18;;;;;;;0.10;0.10;;;;;;;;;;5062929;28;20208;-74
2021/09/27 04:23:52;;;;;;;0.10;0.10;;;;;;;;;;5062849;28;20398;-74
2021/09/27 04:26:25;;;;;;;0.07;0.07;;;;;;;;;;5063264;28;20514;-74
2021/09/27 04:29:10;;;;;;;0.10;0.10;;;;;;;;;;5063008;28;20395;-74
2021/09/27 04:31:41;;;;;;;0.10;0.10;;;;;;;;;;5063193;28;20199;-75
2021/09/27 04:34:14;;;;;;;0.00;0.00;;;;;;;;;;5063074;28;20208;-73
2021/09/27 04:36:43;;;;;;;0.00;0.00;;;;;;;;;;5063173;28;20203;-74
2021/09/27 04:39:11;;;;;;;0.00;0.00;;;;;;;;;;5063019;28;20209;-74
2021/09/27 04:41:58;;;;;;;0.00;0.00;;;;;;;;;;5062919;28;20207;-74
2021/09/27 04:44:31;;;;;;;0.07;0.07;;;;;;;;;;5062774;28;20207;-74
2021/09/27 04:47:03;;;;;;;0.10;0.10;;;;;;;;;;5062438;28;20306;-75
2021/09/27 04:49:35;;;;;;;0.00;0.00;;;;;;;;;;5062862;28;20216;-74
2021/09/27 04:52:06;;;;;;;0.00;0.00;;;;;;;;;;5055417;28;20423;-76
2021/09/27 04:54:44;;;;;;;0.00;0.00;;;;;;;;;;5056783;28;20442;-74
2021/09/27 04:57:19;;;;;;;0.10;0.10;;;;;;;;;;5062915;28;20265;-75
2021/09/27 04:59:48;;;;;;;0.10;0.10;;;;;;;;;;5062366;28;20536;-75
2021/09/27 05:02:23;;;;;;;0.10;0.10;;;;;;;;;;5062399;28;20238;-74
2021/09/27 05:04:51;;;;;;;0.10;0.10;;;;;;;;;;5062834;28;20200;-75
2021/09/27 05:07:29;;;;;;;0.10;0.10;;;;;;;;;;5062882;28;20204;-75
2021/09/27 05:10:04;;;;;;;0.10;0.10;;;;;;;;;;5062617;28;20218;-74
2021/09/27 05:13:03;;;;;;;0.10;0.10;;;;;;;;;;5062403;28;20203;-74
2021/09/27 05:15:41;;;;;;;0.10;0.10;;;;;;;;;;5020846;28;20197;-74
2021/09/27 05:18:23;;;;;;;0.10;0.10;;;;;;;;;;5020821;28;20264;-74
2021/09/27 05:21:04;;;;;;;0.10;0.10;;;;;;;;;;5040413;28;20210;-75
2021/09/27 05:23:32;;;;;;;0.00;0.00;;;;;;;;;;5062456;28;20198;-73
2021/09/27 05:26:13;;;;;;;0.10;0.10;;;;;;;;;;5062317;28;20224;-73
2021/09/27 05:28:49;;;;;;;0.00;0.00;;;;;;;;;;5061908;28;20196;-73
2021/09/27 05:31:30;;;;;;;0.10;0.10;;;;;;;;;;5053019;28;20215;-73
2021/09/27 05:34:02;;;;;;;0.10;0.10;;;;;;;;;;5051939;28;20561;-75
2021/09/27 05:36:40;;;;;;;0.10;0.10;;;;;;;;;;5052949;28;20197;-73
2021/09/27 05:39:10;;;;;;;0.00;0.00;;;;;;;;;;5050549;28;20319;-74
2021/09/27 05:41:52;;;;;;;0.10;0.10;;;;;;;;;;5053148;28;20211;-73
2021/09/27 05:44:25;;;;;;;0.00;0.00;;;;;;;;;;5054152;28;20225;-71
2021/09/27 05:46:59;;;;;;;0.08;0.08;;;;;;;;;;5056251;28;20443;-74
2021/09/27 05:49:28;;;;;;;0.08;0.08;;;;;;;;;;5053520;28;20223;-72
2021/09/27 05:51:58;;;;;;;0.10;0.10;;;;;;;;;;5055807;28;20213;-73
2021/09/27 05:54:27;;;;;;;0.10;0.10;;;;;;;;;;5053256;28;20207;-74
2021/09/27 05:56:56;;;;;;;0.00;0.00;;;;;;;;;;5054932;28;20200;-74
2021/09/27 05:59:25;;;;;;;0.10;0.10;;;;;;;;;;5056771;28;20504;-74
2021/09/27 06:01:57;;;;;;;0.10;0.10;;;;;;;;;;5061309;28;20246;-74
2021/09/27 06:04:25;;;;;;;0.10;0.10;;;;;;;;;;5049924;28;20200;-74
2021/09/27 06:07:00;;;;;;;0.05;0.05;;;;;;;;;;5052116;28;20233;-74
2021/09/27 06:09:34;;;;;;;0.00;0.00;;;;;;;;;;5054751;28;20278;-74
2021/09/27 06:12:03;;;;;;;0.10;0.10;;;;;;;;;;5055403;28;20513;-74
2021/09/27 06:14:30;;;;;;;0.10;0.10;;;;;;;;;;5059359;28;20203;-74
2021/09/27 06:17:02;;;;;;;0.10;0.10;;;;;;;;;;5055689;28;20258;-73
2021/09/27 06:19:32;;;;;;;0.10;0.10;;;;;;;;;;5055413;28;20212;-76
2021/09/27 06:22:07;;;;;;;0.10;0.10;;;;;;;;;;5050998;28;20211;-74
2021/09/27 06:24:36;;;;;;;0.10;0.10;;;;;;;;;;5052439;28;20498;-73
2021/09/27 06:27:04;;;;;;;0.10;0.10;;;;;;;;;;5056998;28;20204;-71
2021/09/27 06:29:35;;;;;;;0.10;0.10;;;;;;;;;;5054030;28;20227;-71
2021/09/27 06:32:05;;;;;;;0.00;0.00;;;;;;;;;;5055698;28;20199;-71
2021/09/27 06:34:34;;;;;;;0.10;0.10;;;;;;;;;;5058041;28;20212;-72
2021/09/27 06:37:01;;;;;;;0.00;0.00;;;;;;;;;;5052677;28;20274;-71
2021/09/27 06:39:31;;;;;;;0.10;0.10;;;;;;;;;;5058738;28;20234;-72
2021/09/27 06:41:57;;;;;;;0.10;0.10;;;;;;;;;;5057534;28;20212;-73
2021/09/27 06:44:24;;;;;;;0.00;0.00;;;;;;;;;;5064268;28;20207;-72
2021/09/27 06:46:51;;;;;;;0.00;0.00;;;;;;;;;;5054582;28;20207;-73
2021/09/27 06:49:17;;;;;;;0.00;0.00;;;;;;;;;;5064861;28;20204;-74
2021/09/27 06:51:44;;;;;;;0.10;0.10;;;;;;;;;;5060616;28;20205;-73
2021/09/27 06:54:11;;;;;;;0.10;0.10;;;;;;;;;;5051541;28;20226;-72
2021/09/27 06:56:39;;;;;;;0.10;0.10;;;;;;;;;;5056056;28;20210;-72
2021/09/27 06:59:06;;;;;;;0.00;0.00;;;;;;;;;;5062916;28;20202;-74
2021/09/27 07:01:32;;;;;;;0.10;0.10;;;;;;;;;;5056109;28;20492;-72
2021/09/27 07:03:59;;;;;;;0.00;0.00;;;;;;;;;;5064359;28;20258;-72
2021/09/27 07:06:25;;;;;;;0.03;0.03;;;;;;;;;;5059184;28;20236;-71
2021/09/27 07:08:51;;;;;;;0.10;0.10;;;;;;;;;;5059711;28;20204;-72
2021/09/27 07:11:18;;;;;;;0.10;0.10;;;;;;;;;;5064369;28;20242;-73
2021/09/27 07:13:45;;;;;;;0.10;0.10;;;;;;;;;;5064477;28;20204;-73
2021/09/27 07:16:11;;;;;;;0.10;0.10;;;;;;;;;;5064368;28;20208;-72
2021/09/27 07:18:39;;;;;;;0.00;0.00;;;;;;;;;;5056716;28;20245;-74
2021/09/27 07:21:06;;;;;;;0.10;0.10;;;;;;;;;;5062240;28;20415;-74
2021/09/27 07:23:37;;;;;;;0.10;0.10;;;;;;;;;;5054679;28;20215;-72
2021/09/27 07:26:04;;;;;;;0.10;0.10;;;;;;;;;;5063850;28;20362;-72
2021/09/27 07:28:30;;;;;;;0.10;0.10;;;;;;;;;;5054403;28;20255;-72
2021/09/27 07:30:58;;;;;;;0.00;0.00;;;;;;;;;;5055075;28;20405;-71
2021/09/27 07:33:24;;;;;;;0.10;0.10;;;;;;;;;;5063843;28;20263;-73
2021/09/27 07:35:50;;;;;;;0.00;0.00;;;;;;;;;;5060356;28;20392;-71
2021/09/27 07:38:16;;;;;;;0.10;0.10;;;;;;;;;;5052974;28;20205;-71
2021/09/27 07:40:43;;;;;;;0.03;0.03;;;;;;;;;;5059337;28;20198;-73
2021/09/27 07:43:09;;;;;;;0.00;0.00;;;;;;;;;;5059040;28;20365;-71
2021/09/27 07:45:36;;;;;;;0.05;0.05;;;;;;;;;;5053652;28;20210;-71
2021/09/27 07:48:05;;;;;;;0.00;0.00;;;;;;;;;;5050593;28;20209;-71
2021/09/27 07:50:31;;;;;;;0.00;0.00;;;;;;;;;;5054171;28;20228;-70
2021/09/27 07:52:58;;;;;;;0.00;0.00;;;;;;;;;;5049312;28;20207;-71
2021/09/27 07:55:24;;;;;;;0.00;0.00;;;;;;;;;;5047713;28;20213;-71
2021/09/27 07:57:50;;;;;;;0.10;0.10;;;;;;;;;;5055365;28;20463;-71
2021/09/27 08:00:18;;;;;;;0.00;0.00;;;;;;;;;;5062878;28;20203;-72
2021/09/27 08:02:44;;;;;;;0.00;0.00;;;;;;;;;;5054301;28;20562;-72
2021/09/27 08:05:13;;;;;;;0.00;0.00;;;;;;;;;;5047586;28;20305;-71
2021/09/27 08:07:39;;;;;;;0.00;0.00;;;;;;;;;;5052777;28;20209;-72
2021/09/27 08:10:07;;;;;;;0.10;0.10;;;;;;;;;;5062926;28;20263;-72
2021/09/27 08:12:36;;;;;;;0.10;0.10;;;;;;;;;;5045099;28;20209;-71
2021/09/27 08:15:02;;;;;;;0.00;0.00;;;;;;;;;;5055701;28;20293;-71
2021/09/27 08:17:29;;;;;;;0.00;0.00;;;;;;;;;;5048613;28;20203;-70
2021/09/27 08:19:56;;;;;;;0.00;0.00;;;;;;;;;;5050810;28;20283;-71
2021/09/27 08:22:23;;;;;;;0.10;0.10;;;;;;;;;;5048723;28;20403;-69
2021/09/27 08:24:50;;;;;;;0.00;0.00;;;;;;;;;;5048113;28;20246;-72
2021/09/27 08:27:16;;;;;;;0.00;0.00;;;;;;;;;;5054732;28;20246;-71
2021/09/27 08:29:42;;;;;;;0.10;0.10;;;;;;;;;;5057256;28;20263;-70
2021/09/27 08:32:08;;;;;;;0.00;0.00;;;;;;;;;;5048022;28;20207;-71
2021/09/27 08:34:35;;;;;;;0.00;0.00;;;;;;;;;;5054842;28;20201;-71
2021/09/27 08:37:01;;;;;;;0.10;0.10;;;;;;;;;;5052605;28;20205;-71
2021/09/27 08:39:29;;;;;;;0.03;0.03;;;;;;;;;;5053238;28;20210;-70
2021/09/27 08:41:59;;;;;;;0.10;0.10;;;;;;;;;;5059136;28;20207;-71
2021/09/27 08:44:36;;;;;;;0.10;0.10;;;;;;;;;;5057360;28;20245;-70
2021/09/27 08:47:05;;;;;;;0.10;0.10;;;;;;;;;;5049722;28;20210;-72
2021/09/27 08:49:37;;;;;;;0.00;0.00;;;;;;;;;;5057174;28;20205;-73
2021/09/27 08:52:05;;;;;;;0.00;0.00;;;;;;;;;;5054434;28;20210;-71
2021/09/27 08:54:34;;;;;;;0.00;0.00;;;;;;;;;;5047176;28;20214;-69
2021/09/27 08:57:05;;;;;;;0.00;0.00;;;;;;;;;;5060359;28;20210;-70
2021/09/27 08:59:41;;;;;;;0.00;0.00;;;;;;;;;;5047514;28;20547;-70
2021/09/27 09:02:11;;;;;;;0.10;0.10;;;;;;;;;;5058049;28;20388;-69
2021/09/27 09:04:42;;;;;;;0.10;0.10;;;;;;;;;;5062432;28;20275;-71
2021/09/27 09:07:10;;;;;;;0.10;0.10;;;;;;;;;;5053182;28;20212;-70
2021/09/27 09:09:41;;;;;;;0.00;0.00;;;;;;;;;;5062368;28;20206;-71
2021/09/27 09:12:09;;;;;;;0.08;0.08;;;;;;;;;;5062635;28;20208;-71
2021/09/27 09:14:39;;;;;;;0.00;0.00;;;;;;;;;;5054062;28;20221;-71
2021/09/27 09:17:10;;;;;;;0.08;0.08;;;;;;;;;;5053410;28;20203;-71
2021/09/27 09:19:37;;;;;;;0.10;0.10;;;;;;;;;;5062361;28;20221;-72
2021/09/27 09:22:06;;;;;;;0.00;0.00;;;;;;;;;;5053496;28;20224;-70
2021/09/27 09:24:34;;;;;;;0.08;0.08;;;;;;;;;;5049490;28;20201;-71
2021/09/27 09:27:05;;;;;;;0.10;0.10;;;;;;;;;;5057778;28;20210;-71
2021/09/27 09:29:32;;;;;;;0.10;0.10;;;;;;;;;;5057162;28;20215;-70
2021/09/27 09:31:59;;;;;;;0.10;0.10;;;;;;;;;;5058542;28;20293;-71
2021/09/27 09:34:28;;;;;;;0.10;0.10;;;;;;;;;;5066356;28;20204;-72
2021/09/27 09:36:55;;;;;;;0.10;0.10;;;;;;;;;;5066373;28;20398;-71
2021/09/27 09:39:24;;;;;;;0.08;0.08;;;;;;;;;;5065913;28;20216;-71
2021/09/27 09:41:51;;;;;;;0.03;0.03;;;;;;;;;;5066237;28;20218;-72
2021/09/27 09:44:24;;;;;;;0.10;0.10;;;;;;;;;;5052293;28;20495;-72
2021/09/27 09:46:58;;;;;;;0.00;0.00;;;;;;;;;;5052778;28;20225;-72
2021/09/27 09:49:24;;;;;;;0.00;0.00;;;;;;;;;;5066160;28;20234;-71
2021/09/27 09:51:58;;;;;;;0.10;0.10;;;;;;;;;;5065995;28;20283;-72
2021/09/27 09:54:26;;;;;;;0.10;0.10;;;;;;;;;;5066233;28;20244;-73
2021/09/27 09:57:01;;;;;;;0.00;0.00;;;;;;;;;;5051813;28;20210;-71
2021/09/27 09:59:30;;;;;;;0.00;0.00;;;;;;;;;;5065827;28;20201;-71
2021/09/27 10:01:58;;;;;;;0.00;0.00;;;;;;;;;;5065493;28;20206;-70
2021/09/27 10:04:26;;;;;;;0.00;0.00;;;;;;;;;;5065845;28;20204;-71
2021/09/27 10:06:58;;;;;;;0.00;0.00;;;;;;;;;;5065685;28;20224;-72
2021/09/27 10:09:27;;;;;;;0.10;0.10;;;;;;;;;;5055790;28;20366;-72
2021/09/27 10:11:54;;;;;;;0.00;0.00;;;;;;;;;;5056795;28;20225;-72
2021/09/27 10:14:22;;;;;;;0.10;0.10;;;;;;;;;;5065485;28;20258;-71
2021/09/27 10:16:51;;;;;;;0.03;0.03;;;;;;;;;;5065315;28;20229;-71
2021/09/27 10:19:26;;;;;;;0.00;0.00;;;;;;;;;;5057210;28;20217;-73
2021/09/27 10:21:53;;;;;;;0.00;0.00;;;;;;;;;;5060455;28;20203;-72
2021/09/27 10:24:20;;;;;;;0.08;0.08;;;;;;;;;;5065368;28;20245;-72
2021/09/27 10:26:49;;;;;;;0.00;0.00;;;;;;;;;;5060544;28;20237;-70
2021/09/27 10:29:17;;;;;;;0.00;0.00;;;;;;;;;;5053653;28;20206;-71
2021/09/27 10:31:45;;;;;;;0.00;0.00;;;;;;;;;;5064957;28;20271;-71
2021/09/27 10:34:14;;;;;;;0.05;0.05;;;;;;;;;;5064304;28;20206;-71
2021/09/27 10:36:43;;;;;;;0.00;0.00;;;;;;;;;;5065192;28;20430;-70
2021/09/27 10:39:10;;;;;;;0.10;0.10;;;;;;;;;;5065173;28;20285;-70
2021/09/27 10:41:38;;;;;;;0.00;0.00;;;;;;;;;;5064972;28;20229;-70
2021/09/27 10:44:07;;;;;;;0.10;0.10;;;;;;;;;;5064311;28;20201;-70
2021/09/27 10:46:35;;;;;;;0.00;0.00;;;;;;;;;;5050941;28;20243;-70
2021/09/27 10:49:02;;;;;;;0.10;0.10;;;;;;;;;;5064583;28;20206;-70
2021/09/27 10:51:34;;;;;;;0.03;0.03;;;;;;;;;;5050290;28;20255;-70
2021/09/27 10:54:03;;;;;;;0.00;0.00;;;;;;;;;;5064809;28;20201;-71
2021/09/27 10:56:34;;;;;;;0.00;0.00;;;;;;;;;;5064479;28;20395;-69
2021/09/27 10:59:02;;;;;;;0.10;0.10;;;;;;;;;;5064807;28;20200;-71
2021/09/27 11:01:43;;;;;;;0.10;0.10;;;;;;;;;;5064453;28;20256;-71
2021/09/27 11:04:13;;;;;;;0.08;0.08;;;;;;;;;;5064494;28;20201;-71
2021/09/27 11:06:43;;;;;;;0.10;0.10;;;;;;;;;;5064540;28;20267;-71
2021/09/27 11:09:12;;;;;;;0.00;0.00;;;;;;;;;;5064532;28;20462;-71
2021/09/27 11:11:41;;;;;;;0.00;0.00;;;;;;;;;;5063351;28;20233;-71
2021/09/27 11:14:22;;;;;;;0.00;0.00;;;;;;;;;;5051802;28;20419;-70
2021/09/27 11:16:54;;;;;;;0.10;0.10;;;;;;;;;;5062233;28;20242;-70
2021/09/27 11:19:29;;;;;;;0.00;0.00;;;;;;;;;;5064348;28;20216;-71
2021/09/27 11:21:56;;;;;;;0.10;0.10;;;;;;;;;;5062547;28;20189;-72
2021/09/27 11:24:44;;;;;;;0.00;0.00;;;;;;;;;;5052243;28;20431;-71
2021/09/27 11:27:12;;;;;;;0.00;0.00;;;;;;;;;;5064007;28;20211;-71
2021/09/27 11:29:46;;;;;;;0.10;0.10;;;;;;;;;;5055089;28;20432;-72
2021/09/27 11:32:16;;;;;;;0.00;0.00;;;;;;;;;;5056446;28;20228;-70
2021/09/27 11:34:44;;;;;;;0.00;0.00;;;;;;;;;;5063741;28;20202;-70
2021/09/27 11:37:16;;;;;;;0.00;0.00;;;;;;;;;;5063988;28;20260;-70
2021/09/27 11:39:45;;;;;;;0.00;0.00;;;;;;;;;;5063855;28;20209;-70
2021/09/27 11:42:23;;;;;;;0.00;0.00;;;;;;;;;;5057757;28;20211;-71
2021/09/27 11:44:55;;;;;;;0.00;0.00;;;;;;;;;;5059405;28;20246;-71
2021/09/27 11:47:32;;;;;;;0.00;0.00;;;;;;;;;;5054609;28;20267;-70
2021/09/27 11:50:03;;;;;;;0.00;0.00;;;;;;;;;;5049841;28;20206;-71
2021/09/27 11:52:39;;;;;;;0.00;0.00;;;;;;;;;;5063809;28;20227;-70
2021/09/27 11:55:09;;;;;;;0.00;0.00;;;;;;;;;;5063672;28;20205;-71
2021/09/27 11:57:39;;;;;;;0.00;0.00;;;;;;;;;;5052335;28;20273;-70
2021/09/27 12:00:07;;;;;;;0.08;0.08;;;;;;;;;;5061486;28;20441;-70
2021/09/27 12:02:37;;;;;;;0.00;0.00;;;;;;;;;;5063288;28;20288;-72
2021/09/27 12:05:10;;;;;;;0.00;0.00;;;;;;;;;;5063204;28;20257;-70
2021/09/27 12:07:40;;;;;;;0.10;0.10;;;;;;;;;;5063101;28;20489;-71
2021/09/27 12:10:08;;;;;;;0.00;0.00;;;;;;;;;;5048767;28;20246;-70
2021/09/27 12:12:39;;;;;;;0.00;0.00;;;;;;;;;;5043199;28;20231;-70
2021/09/27 12:15:06;;;;;;;0.10;0.10;;;;;;;;;;5056325;28;20206;-71
2021/09/27 12:17:33;;;;;;;0.00;0.00;;;;;;;;;;5043758;28;20207;-70
2021/09/27 12:20:03;;;;;;;0.10;0.10;;;;;;;;;;5042921;28;20222;-70
2021/09/27 12:22:32;;;;;;;0.00;0.00;;;;;;;;;;5043464;28;20194;-70
2021/09/27 12:25:01;;;;;;;0.00;0.00;;;;;;;;;;5055271;28;20205;-71
2021/09/27 12:27:29;;;;;;;2.38;2.28;;;;;;;;;;5058496;28;20211;-71
2021/09/27 12:29:57;;;;;;;0.00;0.00;;;;;;;;;;5054121;28;20207;-71
2021/09/27 12:32:25;;;;;;;0.10;0.10;;;;;;;;;;5062846;28;20224;-71
2021/09/27 12:34:52;;;;;;;1.08;1.08;;;;;;;;;;5062925;28;20498;-70
2021/09/27 12:37:19;;;;;;;0.03;0.03;;;;;;;;;;5050596;28;20251;-70
2021/09/27 12:39:46;;;;;;;0.00;0.00;;;;;;;;;;5047341;28;20487;-70
2021/09/27 12:42:15;;;;;;;0.00;0.00;;;;;;;;;;5062828;28;20200;-70
2021/09/27 12:44:45;;;;;;;0.00;0.00;;;;;;;;;;5062839;28;20245;-70
2021/09/27 12:47:11;;;;;;;0.00;0.00;;;;;;;;;;5062871;28;20274;-71
2021/09/27 12:49:40;;;;;;;0.00;0.00;;;;;;;;;;5062347;28;20205;-71
2021/09/27 12:52:08;;;;;;;0.00;0.00;;;;;;;;;;5054300;28;20267;-71
2021/09/27 12:54:37;;;;;;;0.00;0.00;;;;;;;;;;5057327;28;20205;-72
2021/09/27 12:57:06;;;;;;;0.00;0.00;;;;;;;;;;5062722;28;20202;-70
2021/09/27 12:59:34;;;;;;;0.00;0.00;;;;;;;;;;5062725;28;20375;-70
2021/09/27 13:02:02;;;;;;;0.00;0.00;;;;;;;;;;5062829;28;20203;-69
2021/09/27 13:04:33;;;;;;;0.05;0.05;;;;;;;;;;5062666;28;20228;-70
2021/09/27 13:07:03;;;;;;;0.00;0.00;;;;;;;;;;5064017;28;20261;-70
2021/09/27 13:09:32;;;;;;;0.00;0.00;;;;;;;;;;5066328;28;20203;-70
2021/09/27 13:12:12;;;;;;;0.00;0.00;;;;;;;;;;5066074;28;20286;-71
2021/09/27 13:14:42;;;;;;;0.00;0.00;;;;;;;;;;5066180;28;20340;-70
2021/09/27 13:17:12;;;;;;;0.00;0.00;;;;;;;;;;5066434;28;20215;-70
2021/09/27 13:19:41;;;;;;;0.08;0.08;;;;;;;;;;5066072;28;20222;-71
2021/09/27 13:22:12;;;;;;;0.00;0.00;;;;;;;;;;5066036;28;20337;-71
2021/09/27 13:24:39;;;;;;;0.00;0.00;;;;;;;;;;5066218;28;20533;-70
2021/09/27 13:27:08;;;;;;;0.00;0.00;;;;;;;;;;5058812;28;20273;-70
2021/09/27 13:29:36;;;;;;;0.00;0.00;;;;;;;;;;5065931;28;20249;-70
2021/09/27 13:32:07;;;;;;;0.00;0.00;;;;;;;;;;5063836;28;20230;-70
2021/09/27 13:34:38;;;;;;;0.00;0.00;;;;;;;;;;5065599;28;20203;-70
2021/09/27 13:37:14;;;;;;;0.00;0.00;;;;;;;;;;5055078;28;20211;-69
2021/09/27 13:39:41;;;;;;;0.00;0.00;;;;;;;;;;5059671;28;20389;-70
2021/09/27 13:42:08;;;;;;;0.08;0.08;;;;;;;;;;5045535;28;20213;-70
2021/09/27 13:44:50;;;;;;;0.00;0.00;;;;;;;;;;5045798;28;20268;-71
2021/09/27 13:47:20;;;;;;;0.10;0.10;;;;;;;;;;5045827;28;20252;-71
2021/09/27 13:49:46;;;;;;;0.00;0.00;;;;;;;;;;5049627;28;20199;-70
2021/09/27 13:52:14;;;;;;;0.00;0.00;;;;;;;;;;5065842;28;20225;-71
2021/09/27 13:54:40;;;;;;;0.00;0.00;;;;;;;;;;5063865;28;20223;-72
2021/09/27 13:57:08;;;;;;;0.00;0.00;;;;;;;;;;5057138;28;20298;-70
2021/09/27 13:59:34;;;;;;;0.00;0.00;;;;;;;;;;5051607;28;20208;-72
2021/09/27 14:02:00;;;;;;;0.10;0.10;;;;;;;;;;5055809;28;20210;-70
2021/09/27 14:04:29;;;;;;;0.00;0.00;;;;;;;;;;5061644;28;20266;-70
2021/09/27 14:06:55;;;;;;;0.00;0.00;;;;;;;;;;5057092;28;20291;-71
2021/09/27 14:09:22;;;;;;;0.00;0.00;;;;;;;;;;5050579;28;20348;-71
2021/09/27 14:11:48;;;;;;;0.00;0.00;;;;;;;;;;5054431;28;20217;-71
2021/09/27 14:14:15;;;;;;;0.00;0.00;;;;;;;;;;5053225;28;20209;-71
2021/09/27 14:16:42;;;;;;;0.00;0.00;;;;;;;;;;5056804;28;20490;-69
2021/09/27 14:19:08;;;;;;;0.00;0.00;;;;;;;;;;5050419;28;20225;-72
2021/09/27 14:21:35;;;;;;;0.00;0.00;;;;;;;;;;5059077;28;20555;-71
2021/09/27 14:24:03;;;;;;;0.00;0.00;;;;;;;;;;5065237;28;20255;-71
2021/09/27 14:26:32;;;;;;;0.00;0.00;;;;;;;;;;5058501;28;20228;-70
2021/09/27 14:28:58;;;;;;;0.00;0.00;;;;;;;;;;5048224;28;20426;-71
2021/09/27 14:31:24;;;;;;;0.10;0.10;;;;;;;;;;5057224;28;20211;-71
2021/09/27 14:33:51;;;;;;;0.10;0.10;;;;;;;;;;5055707;28;20489;-71
2021/09/27 14:36:17;;;;;;;0.00;0.00;;;;;;;;;;5061932;28;20205;-71
2021/09/27 14:38:46;;;;;;;0.00;0.00;;;;;;;;;;5059930;28;20204;-71
2021/09/27 14:41:15;;;;;;;0.08;0.08;;;;;;;;;;5058577;28;20247;-70
2021/09/27 14:43:41;;;;;;;0.10;0.10;;;;;;;;;;5060490;28;20531;-71
2021/09/27 14:46:07;;;;;;;0.10;0.10;;;;;;;;;;5064875;28;20304;-70
2021/09/27 14:48:34;;;;;;;0.05;0.05;;;;;;;;;;5060412;28;20205;-71
2021/09/27 14:51:00;;;;;;;0.08;0.08;;;;;;;;;;5064717;28;20205;-72
2021/09/27 14:53:27;;;;;;;0.00;0.00;;;;;;;;;;5060761;28;20248;-72
2021/09/27 14:55:55;;;;;;;0.00;0.00;;;;;;;;;;5064743;28;20505;-72
2021/09/27 14:58:23;;;;;;;0.10;0.10;;;;;;;;;;5061382;28;20210;-71